Time;durP1;ratioP1;P1;durP2;ratioP2;P2;SDS_P1;SDS_P2;PMS_P1;PMS_P2;Temp;Humidity;BMP_temperature;BMP_pressure;BME280_temperature;BME280_humidity;BME280_pressure;Samples;Min_cycle;Max_cycle;Signal;HPM_P1;HPM_P2
2021/03/08 00:00:47;;;;;;;0.20;0.20;;;2.10;99.90;;;;;;5031497;28;20198;-86
2021/03/08 00:03:14;;;;;;;0.67;0.20;;;2.10;99.90;;;;;;5032251;28;20209;-86
2021/03/08 00:05:39;;;;;;;0.27;0.27;;;2.10;99.90;;;;;;5030189;28;20202;-87
2021/03/08 00:08:05;;;;;;;0.23;0.23;;;2.10;99.90;;;;;;5035031;28;20194;-85
2021/03/08 00:10:31;;;;;;;0.30;0.30;;;2.00;99.90;;;;;;5036450;28;20577;-85
2021/03/08 00:12:57;;;;;;;0.00;0.00;;;1.90;99.90;;;;;;5036821;28;20222;-86
2021/03/08 00:15:22;;;;;;;0.30;0.30;;;1.90;99.90;;;;;;5036880;28;20197;-86
2021/03/08 00:17:49;;;;;;;0.20;0.20;;;1.90;99.90;;;;;;5037260;28;20192;-85
2021/03/08 00:20:17;;;;;;;0.10;0.10;;;1.80;99.90;;;;;;5037395;28;20199;-86
2021/03/08 00:22:43;;;;;;;1.30;1.17;;;1.70;99.90;;;;;;5052785;28;20230;-87
2021/03/08 00:25:11;;;;;;;0.20;0.20;;;1.60;99.90;;;;;;5038028;28;20281;-85
2021/03/08 00:27:37;;;;;;;0.37;0.37;;;1.60;99.90;;;;;;5038038;28;20188;-86
2021/03/08 00:30:06;;;;;;;0.20;0.20;;;1.60;99.90;;;;;;5037674;28;20744;-86
2021/03/08 00:32:31;;;;;;;0.10;0.10;;;1.60;99.90;;;;;;5035543;28;20214;-86
2021/03/08 00:34:58;;;;;;;0.10;0.10;;;1.70;99.90;;;;;;5037334;28;20246;-86
2021/03/08 00:37:30;;;;;;;0.10;0.10;;;1.80;99.90;;;;;;5034941;28;20191;-86
2021/03/08 00:39:56;;;;;;;0.23;0.10;;;1.80;99.90;;;;;;5036056;28;20196;-86
2021/03/08 00:42:22;;;;;;;0.10;0.10;;;1.80;99.90;;;;;;5037137;28;20202;-85
2021/03/08 00:44:47;;;;;;;0.20;0.20;;;1.80;99.90;;;;;;5038015;28;20182;-86
2021/03/08 00:47:13;;;;;;;0.10;0.10;;;1.90;99.90;;;;;;5036960;28;20190;-86
2021/03/08 00:49:39;;;;;;;0.10;0.10;;;1.80;99.90;;;;;;5034185;28;20205;-87
2021/03/08 00:52:05;;;;;;;0.13;0.13;;;1.70;99.90;;;;;;5027459;28;20228;-85
2021/03/08 00:54:30;;;;;;;0.10;0.10;;;1.70;99.90;;;;;;5031692;28;20226;-86
2021/03/08 00:56:56;;;;;;;0.33;0.33;;;1.60;99.90;;;;;;5032646;28;20244;-86
2021/03/08 00:59:21;;;;;;;0.20;0.20;;;1.60;99.90;;;;;;5034184;28;20228;-86
2021/03/08 01:01:47;;;;;;;0.23;0.23;;;1.40;99.90;;;;;;5049055;28;20197;-85
2021/03/08 01:04:12;;;;;;;0.33;0.33;;;1.40;99.90;;;;;;5032295;28;20269;-86
2021/03/08 01:06:38;;;;;;;0.10;0.10;;;1.40;99.90;;;;;;5045454;28;20193;-85
2021/03/08 01:09:06;;;;;;;0.60;0.37;;;1.40;99.90;;;;;;5046629;28;20328;-86
2021/03/08 01:11:32;;;;;;;0.10;0.10;;;1.40;99.90;;;;;;5032914;28;20274;-85
2021/03/08 01:13:57;;;;;;;0.20;0.20;;;1.50;99.90;;;;;;5033633;28;20265;-86
2021/03/08 01:16:23;;;;;;;0.50;0.20;;;1.50;99.90;;;;;;5033934;28;20194;-86
2021/03/08 01:18:49;;;;;;;0.10;0.10;;;1.50;99.90;;;;;;5032681;28;20577;-85
2021/03/08 01:21:14;;;;;;;0.10;0.10;;;1.50;99.90;;;;;;5026424;28;20648;-86
2021/03/08 01:23:40;;;;;;;0.20;0.20;;;1.40;99.90;;;;;;5032656;28;20214;-86
2021/03/08 01:26:05;;;;;;;0.10;0.10;;;1.50;99.90;;;;;;5027449;28;20191;-87
2021/03/08 01:28:31;;;;;;;0.20;0.20;;;1.50;99.90;;;;;;5034310;28;20218;-86
2021/03/08 01:30:56;;;;;;;0.40;0.27;;;1.40;99.90;;;;;;5046952;28;20194;-87
2021/03/08 01:33:22;;;;;;;0.50;0.50;;;1.40;99.90;;;;;;5030741;28;20206;-86
2021/03/08 01:35:48;;;;;;;0.20;0.20;;;1.40;99.90;;;;;;5032183;28;20273;-86
2021/03/08 01:38:13;;;;;;;0.10;0.10;;;1.40;99.90;;;;;;5027960;28;20659;-86
2021/03/08 01:40:40;;;;;;;0.73;0.50;;;1.30;99.90;;;;;;5029371;28;20216;-86
2021/03/08 01:43:07;;;;;;;0.10;0.10;;;1.30;99.90;;;;;;5028711;28;20209;-86
2021/03/08 01:45:33;;;;;;;1.50;0.27;;;1.30;99.90;;;;;;5031927;28;20212;-86
2021/03/08 01:47:59;;;;;;;0.30;0.30;;;1.30;99.90;;;;;;5031731;28;20197;-86
2021/03/08 01:50:45;;;;;;;0.03;0.03;;;1.30;99.90;;;;;;5028146;28;20182;-86
2021/03/08 01:53:15;;;;;;;0.10;0.10;;;1.10;99.90;;;;;;5032915;28;20224;-86
2021/03/08 01:55:42;;;;;;;0.10;0.10;;;1.10;99.90;;;;;;5031868;28;20193;-86
2021/03/08 01:58:08;;;;;;;0.17;0.17;;;1.10;99.90;;;;;;5031749;28;20676;-86
2021/03/08 02:00:34;;;;;;;0.10;0.10;;;1.20;99.90;;;;;;5027599;28;20273;-87
2021/03/08 02:03:01;;;;;;;0.17;0.17;;;1.20;99.90;;;;;;5042691;28;20204;-86
2021/03/08 02:05:29;;;;;;;0.20;0.20;;;1.20;99.90;;;;;;5030073;28;20557;-86
2021/03/08 02:07:55;;;;;;;0.10;0.10;;;1.30;99.90;;;;;;5032854;28;20674;-86
2021/03/08 02:10:22;;;;;;;0.20;0.20;;;1.30;99.90;;;;;;5046453;28;20202;-86
2021/03/08 02:12:47;;;;;;;0.20;0.20;;;1.40;99.90;;;;;;5033297;28;20222;-86
2021/03/08 02:15:43;;;;;;;0.43;0.33;;;1.50;99.90;;;;;;5031263;28;20625;-86
2021/03/08 02:18:21;;;;;;;0.10;0.10;;;1.50;99.90;;;;;;5019303;28;20277;-86
2021/03/08 02:21:17;;;;;;;1.93;0.43;;;1.60;99.90;;;;;;5026969;28;20186;-86
2021/03/08 02:24:01;;;;;;;1.90;0.67;;;1.60;99.90;;;;;;5024358;28;20210;-86
2021/03/08 02:26:52;;;;;;;0.10;0.10;;;1.60;99.90;;;;;;5021086;28;20186;-86
2021/03/08 02:29:40;;;;;;;0.10;0.10;;;1.60;99.90;;;;;;5032015;28;20221;-86
2021/03/08 02:32:09;;;;;;;0.20;0.20;;;1.60;99.90;;;;;;5027271;28;20221;-86
2021/03/08 02:34:45;;;;;;;0.10;0.10;;;1.50;99.90;;;;;;5026283;28;20216;-86
2021/03/08 02:37:16;;;;;;;0.00;0.00;;;1.50;99.90;;;;;;5023407;28;20212;-86
2021/03/08 02:39:45;;;;;;;0.07;0.07;;;1.40;99.90;;;;;;5031377;28;20190;-86
2021/03/08 02:42:23;;;;;;;1.57;0.50;;;1.40;99.90;;;;;;5034164;28;20203;-85
2021/03/08 02:44:52;;;;;;;0.33;0.20;;;1.50;99.90;;;;;;5030482;28;20561;-85
2021/03/08 02:47:32;;;;;;;0.13;0.13;;;1.50;99.90;;;;;;5029935;28;20215;-86
2021/03/08 02:50:01;;;;;;;0.20;0.20;;;1.40;99.90;;;;;;5041614;28;20211;-86
2021/03/08 02:52:30;;;;;;;0.10;0.10;;;1.30;99.90;;;;;;5031714;28;20268;-86
2021/03/08 02:54:57;;;;;;;0.20;0.20;;;1.20;99.90;;;;;;5032026;28;20201;-86
2021/03/08 02:57:28;;;;;;;0.07;0.07;;;1.10;99.90;;;;;;5032047;28;20183;-86
2021/03/08 02:59:58;;;;;;;0.40;0.40;;;1.00;99.90;;;;;;5034249;28;20189;-86
2021/03/08 03:02:24;;;;;;;0.50;0.27;;;0.90;99.90;;;;;;5051058;28;20212;-86
2021/03/08 03:04:51;;;;;;;0.53;0.53;;;1.00;99.90;;;;;;5034673;28;20647;-86
2021/03/08 03:07:19;;;;;;;0.20;0.20;;;1.10;99.90;;;;;;5035059;28;20720;-87
2021/03/08 03:09:45;;;;;;;6.27;1.07;;;1.20;99.90;;;;;;5048722;28;20848;-87
2021/03/08 03:12:14;;;;;;;0.20;0.20;;;1.20;99.90;;;;;;5035706;28;20214;-87
2021/03/08 03:14:43;;;;;;;0.10;0.10;;;1.20;99.90;;;;;;5034443;28;20186;-85
2021/03/08 03:17:13;;;;;;;0.20;0.20;;;1.20;99.90;;;;;;5036090;28;20268;-85
2021/03/08 03:19:49;;;;;;;0.27;0.27;;;1.20;99.90;;;;;;5022190;28;20182;-86
2021/03/08 03:22:15;;;;;;;0.10;0.10;;;1.20;99.90;;;;;;5051104;28;20257;-85
2021/03/08 03:24:41;;;;;;;0.33;0.30;;;1.20;99.90;;;;;;5034040;28;20678;-86
2021/03/08 03:27:08;;;;;;;0.80;0.53;;;1.20;99.90;;;;;;5036885;28;20232;-86
2021/03/08 03:29:36;;;;;;;0.13;0.13;;;1.20;99.90;;;;;;5039375;28;20222;-87
2021/03/08 03:32:03;;;;;;;0.17;0.17;;;1.20;99.90;;;;;;5038472;28;20546;-85
2021/03/08 03:34:29;;;;;;;0.47;0.47;;;1.10;99.90;;;;;;5036993;28;20647;-85
2021/03/08 03:36:58;;;;;;;0.33;0.23;;;1.10;99.90;;;;;;5049467;28;20182;-86
2021/03/08 03:39:24;;;;;;;0.20;0.20;;;1.20;99.90;;;;;;5035397;28;20184;-85
2021/03/08 03:41:50;;;;;;;0.20;0.20;;;1.10;99.90;;;;;;5035892;28;20197;-86
2021/03/08 03:44:15;;;;;;;0.20;0.20;;;1.10;99.90;;;;;;5035243;28;20202;-85
2021/03/08 03:46:42;;;;;;;0.20;0.20;;;1.10;99.90;;;;;;5034509;28;20209;-87
2021/03/08 03:49:09;;;;;;;0.20;0.20;;;1.00;99.90;;;;;;5033865;28;20206;-85
2021/03/08 03:51:35;;;;;;;0.10;0.10;;;1.00;99.90;;;;;;5033104;28;20196;-86
2021/03/08 03:54:01;;;;;;;0.20;0.20;;;0.80;99.90;;;;;;5034458;28;20711;-86
2021/03/08 03:56:30;;;;;;;0.10;0.10;;;0.50;99.90;;;;;;5023651;28;20285;-85
2021/03/08 03:59:17;;;;;;;0.20;0.10;;;0.20;99.90;;;;;;5049887;28;20244;-86
2021/03/08 04:01:54;;;;;;;0.10;0.10;;;0.10;99.90;;;;;;5033357;28;20212;-85
2021/03/08 04:04:26;;;;;;;0.10;0.10;;;0.20;99.90;;;;;;5033543;28;20193;-87
2021/03/08 04:06:53;;;;;;;0.13;0.13;;;0.20;99.90;;;;;;5043132;28;20185;-85
2021/03/08 04:09:21;;;;;;;0.20;0.13;;;0.20;99.90;;;;;;5034957;28;20217;-86
2021/03/08 04:11:52;;;;;;;0.50;0.30;;;0.10;99.90;;;;;;5033072;28;20195;-86
2021/03/08 04:14:22;;;;;;;1.90;1.03;;;0.30;99.90;;;;;;5034655;28;20192;-85
2021/03/08 04:16:52;;;;;;;0.47;0.47;;;0.40;99.90;;;;;;5029844;28;20197;-86
2021/03/08 04:19:20;;;;;;;0.27;0.27;;;0.50;99.90;;;;;;5032623;28;20191;-86
2021/03/08 04:21:48;;;;;;;0.43;0.43;;;0.60;99.90;;;;;;5032831;28;20731;-86
2021/03/08 04:24:15;;;;;;;0.27;0.20;;;0.70;99.90;;;;;;5033655;28;20186;-85
2021/03/08 04:26:41;;;;;;;0.30;0.30;;;0.80;99.90;;;;;;5035395;28;20934;-85
2021/03/08 04:29:08;;;;;;;0.20;0.10;;;0.70;99.90;;;;;;5031222;28;20213;-85
2021/03/08 04:31:34;;;;;;;0.10;0.10;;;0.80;99.90;;;;;;5033799;28;20209;-86
2021/03/08 04:34:02;;;;;;;0.33;0.30;;;0.80;99.90;;;;;;5035548;28;21955;-86
2021/03/08 04:36:29;;;;;;;0.77;0.30;;;1.00;99.90;;;;;;5036035;28;20272;-86
2021/03/08 04:38:55;;;;;;;0.20;0.20;;;0.80;99.90;;;;;;5033936;28;20261;-86
2021/03/08 04:41:21;;;;;;;0.30;0.30;;;0.70;99.90;;;;;;5032874;28;20189;-87
2021/03/08 04:43:47;;;;;;;0.10;0.10;;;0.70;99.90;;;;;;5031835;28;20207;-86
2021/03/08 04:46:14;;;;;;;0.20;0.20;;;0.70;99.90;;;;;;5028361;28;20340;-87
2021/03/08 04:48:40;;;;;;;0.27;0.27;;;0.20;99.90;;;;;;5024620;28;20237;-86
2021/03/08 04:51:08;;;;;;;0.10;0.10;;;0.00;99.90;;;;;;5030346;28;20190;-86
2021/03/08 04:53:35;;;;;;;0.47;0.47;;;-0.20;99.90;;;;;;5034853;28;20199;-87
2021/03/08 04:56:02;;;;;;;0.20;0.20;;;-0.20;99.90;;;;;;5036181;28;20187;-87
2021/03/08 04:58:32;;;;;;;0.63;0.63;;;-0.40;99.90;;;;;;5049800;28;20233;-86
2021/03/08 05:00:58;;;;;;;0.27;0.27;;;-0.60;99.90;;;;;;5029758;28;20208;-87
2021/03/08 05:03:26;;;;;;;0.10;0.10;;;-0.60;99.90;;;;;;5034814;28;21004;-86
2021/03/08 05:05:55;;;;;;;0.10;0.10;;;-0.50;99.90;;;;;;5039555;28;20245;-89
2021/03/08 05:08:21;;;;;;;0.10;0.10;;;-0.30;99.90;;;;;;5037033;28;20228;-85
2021/03/08 05:10:49;;;;;;;0.23;0.23;;;-0.30;99.90;;;;;;5027801;28;20209;-87
2021/03/08 05:13:16;;;;;;;0.00;0.00;;;-0.20;99.90;;;;;;5032610;28;20248;-86
2021/03/08 05:15:43;;;;;;;0.67;0.60;;;-0.10;99.90;;;;;;5031380;28;20183;-86
2021/03/08 05:18:10;;;;;;;0.00;0.00;;;-0.10;99.90;;;;;;5031323;28;20678;-86
2021/03/08 05:20:43;;;;;;;0.17;0.17;;;-0.10;99.90;;;;;;5030523;28;20190;-86
2021/03/08 05:23:10;;;;;;;0.60;0.30;;;0.20;99.90;;;;;;5033306;28;20202;-86
2021/03/08 05:25:36;;;;;;;0.10;0.10;;;0.30;99.90;;;;;;5030735;28;20636;-86
2021/03/08 05:28:04;;;;;;;0.83;0.47;;;0.40;99.90;;;;;;5028882;28;20193;-86
2021/03/08 05:30:30;;;;;;;0.27;0.27;;;0.50;99.90;;;;;;5032522;28;20190;-86
2021/03/08 05:33:23;;;;;;;1.20;1.10;;;0.50;99.90;;;;;;5032167;28;20221;-85
2021/03/08 05:36:02;;;;;;;0.77;0.57;;;0.50;99.90;;;;;;5013682;28;20194;-86
2021/03/08 05:38:30;;;;;;;0.73;0.43;;;0.60;99.90;;;;;;5027950;28;20681;-85
2021/03/08 05:41:24;;;;;;;0.37;0.37;;;0.60;99.90;;;;;;5032756;28;20187;-85
2021/03/08 05:43:55;;;;;;;0.37;0.37;;;0.60;99.90;;;;;;5030715;28;20732;-86
2021/03/08 05:46:49;;;;;;;0.23;0.10;;;0.60;99.90;;;;;;5035066;28;20187;-87
2021/03/08 05:49:54;;;;;;;0.17;0.17;;;0.60;99.90;;;;;;5030882;28;20207;-86
2021/03/08 05:52:38;;;;;;;0.27;0.27;;;0.60;99.90;;;;;;5020648;28;20360;-86
2021/03/08 05:55:22;;;;;;;0.10;0.10;;;0.60;99.90;;;;;;5029691;28;20186;-85
2021/03/08 05:58:26;;;;;;;0.10;0.10;;;0.60;99.90;;;;;;5030056;28;20235;-84
2021/03/08 06:01:26;;;;;;;0.27;0.27;;;0.60;99.90;;;;;;4998887;28;20195;-85
2021/03/08 06:04:10;;;;;;;0.10;0.10;;;0.60;99.90;;;;;;5039448;28;20198;-85
2021/03/08 06:06:57;;;;;;;0.30;0.30;;;0.60;99.90;;;;;;5030178;28;20208;-85
2021/03/08 06:09:27;;;;;;;0.23;0.23;;;0.60;99.90;;;;;;5042520;28;20217;-84
2021/03/08 06:12:08;;;;;;;0.10;0.10;;;0.70;99.90;;;;;;5029911;28;20198;-84
2021/03/08 06:14:42;;;;;;;0.20;0.20;;;0.70;99.90;;;;;;5027593;28;20794;-85
2021/03/08 06:17:17;;;;;;;0.40;0.40;;;0.80;99.90;;;;;;5035193;28;20182;-84
2021/03/08 06:19:44;;;;;;;0.10;0.10;;;0.80;99.90;;;;;;5019823;28;20183;-84
2021/03/08 06:22:11;;;;;;;0.40;0.40;;;0.80;99.90;;;;;;5029033;28;20203;-84
2021/03/08 06:24:39;;;;;;;0.20;0.20;;;0.90;99.90;;;;;;5033582;28;20243;-84
2021/03/08 06:27:07;;;;;;;0.30;0.30;;;1.00;99.90;;;;;;5032818;28;20186;-84
2021/03/08 06:29:34;;;;;;;0.10;0.10;;;1.00;99.90;;;;;;5025724;28;20236;-83
2021/03/08 06:32:03;;;;;;;0.10;0.10;;;1.10;99.90;;;;;;5027588;28;21769;-84
2021/03/08 06:34:30;;;;;;;1.03;0.30;;;1.20;99.90;;;;;;5032922;28;20183;-86
2021/03/08 06:37:02;;;;;;;0.50;0.50;;;1.10;99.90;;;;;;5031211;28;20179;-85
2021/03/08 06:39:27;;;;;;;0.20;0.20;;;1.10;99.90;;;;;;5046380;28;20184;-86
2021/03/08 06:41:53;;;;;;;0.10;0.10;;;1.20;99.90;;;;;;5052375;28;20175;-85
2021/03/08 06:44:19;;;;;;;0.10;0.10;;;1.30;99.90;;;;;;5036489;28;20702;-85
2021/03/08 06:46:45;;;;;;;0.20;0.20;;;1.30;99.90;;;;;;5038162;28;20187;-85
2021/03/08 06:49:10;;;;;;;0.13;0.13;;;1.00;99.90;;;;;;5035860;28;20204;-86
2021/03/08 06:51:56;;;;;;;0.20;0.20;;;0.90;99.90;;;;;;5034694;28;20190;-85
2021/03/08 06:54:21;;;;;;;0.10;0.10;;;1.10;99.90;;;;;;5034289;28;20257;-86
2021/03/08 06:56:47;;;;;;;0.33;0.30;;;1.30;99.90;;;;;;5033454;28;20197;-85
2021/03/08 06:59:13;;;;;;;0.83;0.30;;;1.60;99.90;;;;;;5050208;28;20189;-85
2021/03/08 07:01:40;;;;;;;0.10;0.10;;;1.80;99.90;;;;;;5048790;28;20221;-85
2021/03/08 07:04:24;;;;;;;0.27;0.27;;;2.00;99.90;;;;;;5042950;28;20224;-85
2021/03/08 07:07:04;;;;;;;0.20;0.20;;;2.20;99.90;;;;;;5021703;28;20183;-85
2021/03/08 07:09:30;;;;;;;0.20;0.20;;;2.40;99.90;;;;;;5036659;28;20861;-87
2021/03/08 07:12:10;;;;;;;1.57;0.50;;;2.60;99.90;;;;;;5049465;28;20503;-86
2021/03/08 07:14:37;;;;;;;0.20;0.20;;;2.60;99.90;;;;;;5032446;28;20283;-85
2021/03/08 07:17:23;;;;;;;0.10;0.10;;;2.70;99.90;;;;;;5031534;28;20217;-84
2021/03/08 07:19:53;;;;;;;0.63;0.63;;;2.70;99.90;;;;;;5024208;28;20204;-84
2021/03/08 07:22:37;;;;;;;0.37;0.37;;;2.80;99.90;;;;;;5033364;28;20206;-85
2021/03/08 07:25:15;;;;;;;1.13;0.57;;;2.90;99.90;;;;;;5034771;28;20179;-84
2021/03/08 07:27:50;;;;;;;0.10;0.10;;;3.00;99.90;;;;;;5034753;28;20183;-84
2021/03/08 07:30:17;;;;;;;0.43;0.43;;;3.10;99.90;;;;;;5044128;28;20286;-85
2021/03/08 07:33:00;;;;;;;0.30;0.30;;;3.30;99.90;;;;;;5050044;28;20241;-85
2021/03/08 07:35:55;;;;;;;0.37;0.37;;;3.40;99.90;;;;;;5057125;28;20269;-84
2021/03/08 07:38:31;;;;;;;0.13;0.13;;;3.60;99.90;;;;;;5021832;28;20190;-85
2021/03/08 07:41:09;;;;;;;0.30;0.30;;;3.70;99.90;;;;;;5034995;28;20260;-85
2021/03/08 07:43:36;;;;;;;0.43;0.33;;;3.90;99.90;;;;;;5034580;28;20200;-85
2021/03/08 07:46:02;;;;;;;0.10;0.10;;;4.00;99.90;;;;;;5035083;28;20183;-85
2021/03/08 07:48:27;;;;;;;0.10;0.10;;;4.10;99.90;;;;;;5035930;28;20233;-85
2021/03/08 07:50:53;;;;;;;0.10;0.10;;;4.20;99.90;;;;;;5032227;28;20253;-85
2021/03/08 07:53:30;;;;;;;0.20;0.20;;;4.40;99.90;;;;;;5035258;28;20237;-85
2021/03/08 07:56:04;;;;;;;0.07;0.07;;;4.60;99.90;;;;;;5032969;28;20189;-85
2021/03/08 07:58:35;;;;;;;1.50;0.30;;;4.70;99.90;;;;;;5033241;28;20207;-84
2021/03/08 08:01:06;;;;;;;0.97;0.60;;;4.90;99.90;;;;;;5031340;28;20194;-85
2021/03/08 08:03:33;;;;;;;0.10;0.10;;;5.00;99.90;;;;;;5038770;28;20208;-85
2021/03/08 08:06:06;;;;;;;0.47;0.47;;;5.20;99.90;;;;;;5033702;28;20298;-84
2021/03/08 08:08:34;;;;;;;0.30;0.30;;;5.30;99.90;;;;;;5032932;28;20209;-84
2021/03/08 08:11:01;;;;;;;0.37;0.37;;;5.50;99.90;;;;;;5028542;28;20255;-83
2021/03/08 08:13:29;;;;;;;0.30;0.30;;;5.70;99.90;;;;;;5038923;28;20241;-84
2021/03/08 08:15:57;;;;;;;0.30;0.30;;;6.00;99.90;;;;;;5036909;28;20707;-84
2021/03/08 08:18:25;;;;;;;1.03;0.37;;;6.30;99.90;;;;;;5044260;28;20214;-84
2021/03/08 08:20:55;;;;;;;0.50;0.40;;;6.60;99.90;;;;;;5032367;28;20190;-85
2021/03/08 08:23:27;;;;;;;0.17;0.17;;;6.80;99.90;;;;;;5031570;28;20209;-83
2021/03/08 08:25:52;;;;;;;0.20;0.20;;;7.00;99.90;;;;;;5029934;28;20334;-84
2021/03/08 08:28:19;;;;;;;0.43;0.27;;;7.30;99.90;;;;;;5035394;28;20885;-85
2021/03/08 08:30:55;;;;;;;0.47;0.30;;;7.40;99.90;;;;;;5035918;28;20188;-83
2021/03/08 08:33:33;;;;;;;1.60;1.50;;;7.60;99.90;;;;;;5031256;28;20201;-85
2021/03/08 08:36:24;;;;;;;0.93;0.67;;;7.70;99.90;;;;;;5036119;28;20645;-85
2021/03/08 08:38:53;;;;;;;0.23;0.20;;;7.70;99.90;;;;;;5034571;28;20182;-85
2021/03/08 08:41:29;;;;;;;2.63;0.93;;;7.80;99.90;;;;;;5048512;28;20194;-86
2021/03/08 08:44:07;;;;;;;0.43;0.30;;;8.00;99.90;;;;;;5032712;28;20209;-86
2021/03/08 08:46:38;;;;;;;0.27;0.27;;;8.10;99.90;;;;;;5038237;28;20792;-84
2021/03/08 08:49:09;;;;;;;0.40;0.23;;;8.00;99.90;;;;;;5032822;28;20221;-86
2021/03/08 08:51:49;;;;;;;0.43;0.37;;;8.10;99.90;;;;;;5033435;28;20202;-85
2021/03/08 08:54:27;;;;;;;1.23;0.93;;;8.20;99.90;;;;;;5032141;28;20662;-85
2021/03/08 08:57:00;;;;;;;5.27;1.13;;;8.20;99.90;;;;;;5031240;28;20288;-86
2021/03/08 08:59:27;;;;;;;0.40;0.40;;;8.10;99.90;;;;;;5044805;28;20298;-88
2021/03/08 09:02:21;;;;;;;0.23;0.23;;;8.10;99.90;;;;;;5030479;28;20187;-86
2021/03/08 09:04:46;;;;;;;0.33;0.33;;;8.20;99.90;;;;;;5032642;28;20217;-84
2021/03/08 09:07:29;;;;;;;0.10;0.10;;;8.10;99.90;;;;;;5028377;28;20273;-84
2021/03/08 09:09:59;;;;;;;4.33;1.27;;;8.30;99.90;;;;;;5020444;28;20285;-84
2021/03/08 09:12:34;;;;;;;0.93;0.87;;;8.30;99.90;;;;;;5025973;28;20214;-84
2021/03/08 09:15:07;;;;;;;0.87;0.30;;;8.40;99.90;;;;;;5036063;28;20186;-85
2021/03/08 09:17:51;;;;;;;0.83;0.83;;;8.40;99.90;;;;;;5027075;28;20654;-84
2021/03/08 09:20:28;;;;;;;0.37;0.37;;;8.50;99.90;;;;;;5039314;28;20274;-84
2021/03/08 09:23:02;;;;;;;0.40;0.33;;;8.60;99.90;;;;;;5036108;28;20202;-84
2021/03/08 09:25:33;;;;;;;0.60;0.50;;;8.60;99.90;;;;;;5037105;28;20191;-85
2021/03/08 09:27:58;;;;;;;0.40;0.40;;;8.50;99.90;;;;;;5021762;28;20190;-85
2021/03/08 09:30:27;;;;;;;1.00;0.50;;;8.50;99.90;;;;;;5028538;28;20293;-83
2021/03/08 09:32:57;;;;;;;0.30;0.30;;;8.50;99.90;;;;;;5031712;28;20632;-84
2021/03/08 09:35:30;;;;;;;0.17;0.17;;;8.50;99.90;;;;;;5030796;28;20269;-84
2021/03/08 09:37:59;;;;;;;0.57;0.40;;;8.60;99.90;;;;;;5032464;28;20185;-85
2021/03/08 09:40:28;;;;;;;0.60;0.50;;;8.50;99.90;;;;;;5028561;28;20213;-84
2021/03/08 09:42:54;;;;;;;2.97;0.60;;;8.60;99.90;;;;;;5038591;28;20200;-85
2021/03/08 09:45:22;;;;;;;0.40;0.40;;;8.70;99.90;;;;;;5031635;28;20186;-84
2021/03/08 09:47:48;;;;;;;0.60;0.60;;;8.20;99.90;;;;;;5032254;28;20189;-84
2021/03/08 09:50:17;;;;;;;0.20;0.20;;;8.60;99.90;;;;;;5030454;28;20210;-83
2021/03/08 09:52:45;;;;;;;0.60;0.60;;;8.70;99.90;;;;;;5031280;28;20196;-84
2021/03/08 09:55:35;;;;;;;0.73;0.40;;;9.00;99.90;;;;;;5039494;28;20183;-84
2021/03/08 09:58:16;;;;;;;0.43;0.43;;;9.10;99.90;;;;;;5027555;28;20186;-84
2021/03/08 10:00:43;;;;;;;0.30;0.30;;;8.80;99.90;;;;;;5026533;28;20202;-85
2021/03/08 10:03:10;;;;;;;0.30;0.20;;;9.00;99.90;;;;;;5022034;28;21952;-85
2021/03/08 10:05:53;;;;;;;1.53;0.80;;;8.40;99.90;;;;;;5030335;28;20299;-83
2021/03/08 10:08:20;;;;;;;0.53;0.53;;;8.20;99.90;;;;;;5039091;28;20615;-84
2021/03/08 10:10:51;;;;;;;2.27;0.63;;;7.70;99.90;;;;;;5032898;28;20298;-86
2021/03/08 10:13:18;;;;;;;1.20;1.13;;;7.60;99.90;;;;;;5028103;28;20221;-85
2021/03/08 10:15:49;;;;;;;0.57;0.57;;;7.30;99.90;;;;;;5033089;28;20532;-85
2021/03/08 10:18:20;;;;;;;0.47;0.47;;;8.00;99.90;;;;;;5025175;28;20190;-84
2021/03/08 10:20:52;;;;;;;0.60;0.43;;;7.90;99.90;;;;;;5028740;28;20605;-84
2021/03/08 10:23:27;;;;;;;0.67;0.50;;;7.90;99.90;;;;;;5032923;28;20198;-84
2021/03/08 10:26:01;;;;;;;0.97;0.53;;;8.40;99.90;;;;;;5034488;28;20720;-84
2021/03/08 10:28:47;;;;;;;0.40;0.40;;;8.80;99.90;;;;;;5033360;28;20674;-84
2021/03/08 10:31:17;;;;;;;0.50;0.47;;;9.30;99.90;;;;;;5029575;28;20192;-84
2021/03/08 10:33:55;;;;;;;0.37;0.37;;;9.70;99.90;;;;;;5028419;28;20209;-84
2021/03/08 10:36:27;;;;;;;1.10;0.80;;;9.20;99.90;;;;;;5034894;28;20176;-84
2021/03/08 10:38:58;;;;;;;0.40;0.40;;;9.10;99.90;;;;;;5027000;28;20203;-84
2021/03/08 10:41:27;;;;;;;1.10;0.20;;;9.40;99.90;;;;;;5028143;28;20189;-83
2021/03/08 10:43:54;;;;;;;0.40;0.40;;;9.50;99.90;;;;;;5033894;28;20832;-84
2021/03/08 10:46:20;;;;;;;0.60;0.60;;;8.90;99.90;;;;;;5032850;28;20195;-84
2021/03/08 10:48:56;;;;;;;1.97;0.73;;;8.70;99.90;;;;;;5046987;28;20207;-84
2021/03/08 10:51:22;;;;;;;0.40;0.40;;;8.50;99.90;;;;;;5025938;28;20180;-83
2021/03/08 10:53:58;;;;;;;0.40;0.30;;;8.50;99.90;;;;;;5032048;28;20214;-84
2021/03/08 10:56:25;;;;;;;0.87;0.87;;;9.00;99.90;;;;;;5035033;28;20188;-84
2021/03/08 10:58:51;;;;;;;0.40;0.40;;;8.50;99.90;;;;;;5043186;28;20192;-84
2021/03/08 11:01:17;;;;;;;1.13;0.77;;;9.00;99.90;;;;;;5034131;28;20214;-84
2021/03/08 11:03:42;;;;;;;0.83;0.83;;;8.80;99.90;;;;;;5032713;28;20233;-83
2021/03/08 11:06:10;;;;;;;0.43;0.43;;;9.00;99.90;;;;;;5038088;28;20589;-84
2021/03/08 11:08:38;;;;;;;1.57;0.87;;;9.00;99.90;;;;;;5034829;28;20210;-83
2021/03/08 11:11:22;;;;;;;0.53;0.53;;;9.30;99.90;;;;;;5030649;28;20197;-84
2021/03/08 11:13:49;;;;;;;0.70;0.63;;;9.00;99.90;;;;;;5032526;28;20216;-83
2021/03/08 11:16:16;;;;;;;2.30;0.67;;;8.90;99.90;;;;;;5032720;28;20183;-84
2021/03/08 11:18:42;;;;;;;0.93;0.53;;;8.80;99.90;;;;;;5032371;28;20194;-84
2021/03/08 11:21:24;;;;;;;3.10;0.53;;;8.50;99.90;;;;;;5029769;28;20204;-85
2021/03/08 11:23:51;;;;;;;0.47;0.47;;;8.90;99.90;;;;;;5039386;28;20311;-87
2021/03/08 11:26:17;;;;;;;0.60;0.60;;;9.40;99.90;;;;;;5033698;28;20191;-85
2021/03/08 11:28:43;;;;;;;3.10;1.20;;;8.80;99.90;;;;;;5032983;28;20847;-85
2021/03/08 11:31:19;;;;;;;0.40;0.40;;;8.30;99.90;;;;;;5028434;28;20562;-85
2021/03/08 11:33:48;;;;;;;1.27;0.23;;;9.00;99.90;;;;;;5037979;28;20204;-85
2021/03/08 11:36:26;;;;;;;0.40;0.40;;;9.40;99.90;;;;;;5033727;28;20182;-85
2021/03/08 11:38:52;;;;;;;0.20;0.20;;;9.70;99.90;;;;;;5032272;28;20185;-84
2021/03/08 11:41:17;;;;;;;0.70;0.70;;;10.00;99.90;;;;;;5040673;28;20280;-86
2021/03/08 11:43:43;;;;;;;0.70;0.70;;;10.30;99.90;;;;;;5038258;28;20239;-86
2021/03/08 11:46:09;;;;;;;1.97;1.77;;;9.70;99.90;;;;;;5039385;28;20208;-86
2021/03/08 11:48:34;;;;;;;0.93;0.93;;;9.80;99.90;;;;;;5038685;28;20189;-86
2021/03/08 11:51:00;;;;;;;0.40;0.40;;;9.40;99.90;;;;;;5036906;28;20546;-86
2021/03/08 11:53:25;;;;;;;0.20;0.20;;;9.70;99.90;;;;;;5036517;28;20227;-86
2021/03/08 11:55:51;;;;;;;0.43;0.43;;;10.10;99.90;;;;;;5034573;28;20190;-86
2021/03/08 11:58:20;;;;;;;0.67;0.67;;;10.50;99.90;;;;;;5039113;28;20666;-85
2021/03/08 12:00:45;;;;;;;1.43;1.30;;;9.80;99.90;;;;;;5040697;28;20197;-85
2021/03/08 12:03:11;;;;;;;0.50;0.50;;;9.10;99.90;;;;;;5040611;28;20211;-85
2021/03/08 12:05:37;;;;;;;0.60;0.60;;;8.90;99.90;;;;;;5035910;28;20214;-85
2021/03/08 12:08:02;;;;;;;4.67;1.23;;;9.20;99.90;;;;;;5039092;28;20189;-86
2021/03/08 12:10:28;;;;;;;1.77;0.27;;;9.80;99.90;;;;;;5053478;28;20196;-87
2021/03/08 12:12:53;;;;;;;1.53;0.73;;;9.80;99.90;;;;;;5055131;28;20212;-86
2021/03/08 12:15:20;;;;;;;0.37;0.37;;;10.20;99.90;;;;;;5039568;28;20573;-84
2021/03/08 12:17:45;;;;;;;0.20;0.20;;;10.30;99.90;;;;;;5034960;28;20198;-85
2021/03/08 12:20:11;;;;;;;0.27;0.27;;;10.50;99.90;;;;;;5032978;28;20188;-84
2021/03/08 12:22:38;;;;;;;0.10;0.10;;;10.70;99.90;;;;;;5033298;28;20325;-84
2021/03/08 12:25:07;;;;;;;0.57;0.40;;;10.90;99.90;;;;;;5035294;28;20199;-86
2021/03/08 12:27:33;;;;;;;0.40;0.40;;;11.00;99.90;;;;;;5052449;28;20189;-84
2021/03/08 12:29:59;;;;;;;0.37;0.30;;;11.20;99.90;;;;;;5028264;28;20201;-85
2021/03/08 12:32:25;;;;;;;2.13;1.27;;;11.00;99.90;;;;;;5036587;28;20216;-85
2021/03/08 12:34:51;;;;;;;0.97;0.57;;;10.00;99.90;;;;;;5036587;28;20182;-86
2021/03/08 12:37:17;;;;;;;0.83;0.83;;;9.60;99.90;;;;;;5030865;28;20200;-85
2021/03/08 12:39:43;;;;;;;0.30;0.30;;;9.80;99.90;;;;;;5036103;28;20199;-85
2021/03/08 12:42:10;;;;;;;1.23;0.43;;;10.10;99.90;;;;;;5035061;28;20254;-85
2021/03/08 12:44:36;;;;;;;1.13;0.67;;;10.50;99.90;;;;;;5051095;28;20203;-86
2021/03/08 12:47:02;;;;;;;1.43;0.70;;;10.40;99.90;;;;;;5043640;28;20232;-86
2021/03/08 12:49:27;;;;;;;0.30;0.30;;;9.60;99.90;;;;;;5032663;28;20208;-88
2021/03/08 12:51:53;;;;;;;1.23;0.57;;;9.80;99.90;;;;;;5032984;28;20203;-84
2021/03/08 12:54:19;;;;;;;0.20;0.20;;;9.60;99.90;;;;;;5040748;28;20213;-85
2021/03/08 12:56:45;;;;;;;2.83;0.60;;;9.60;99.90;;;;;;5034816;28;20251;-84
2021/03/08 12:59:10;;;;;;;1.13;0.97;;;10.10;99.90;;;;;;5040080;28;20615;-85
2021/03/08 13:01:36;;;;;;;0.80;0.80;;;9.90;99.90;;;;;;5040136;28;20190;-84
2021/03/08 13:04:02;;;;;;;1.03;1.00;;;9.40;99.90;;;;;;5036446;28;20579;-84
2021/03/08 13:06:27;;;;;;;0.70;0.70;;;9.30;99.90;;;;;;5035325;28;20200;-84
2021/03/08 13:08:55;;;;;;;1.70;0.73;;;9.70;99.90;;;;;;5036586;28;20200;-84
2021/03/08 13:11:20;;;;;;;0.67;0.67;;;9.20;99.90;;;;;;5034217;28;20187;-84